罗盘
风向 的 风向 的 风向 到 风向 220° Borkum Airport 5/23
风: 9 kt, 3 beaufort

9 kt

1 kt
改变
0 1.000 2.000 3.000 4.000 5.000
N/A
METAR EDWE 061920Z AUTO 22009KT 190V250 4200 // ///////// 15/14 Q1020

METAR Borkum Airport

Borkum Airport是Borkum,德国中的小机场。 该机场有3条跑道: 5/23, 12/30 和 13/31.

这份报告是针对2022年7月6日 9:20 下午, 当地时间在Emden Airport进行的。

机场观察

风向为220°,速度为9 kt。 风向在190°和250°之间变化。

可见度为2⅝ mi。

有。 没有观察到天花板。

温度和风寒是59 °F。 露点为57 °F,相对湿度为94%。 海平面上的气压为30,12 inHg (QNH)。

白天

今天,太阳从5:12 上午升起,在10:03 下午降落。 这适用于Borkum Airport,世界夏令时可能有所不同。 当地时间与世界标准时间之间的时差为+2 小时。 夏令时目前正在进行中。

公司介绍

我们没有关于这个机场的公司信息。

体会

到Vliegles.nl去找飞行课程,跳伞和其他飞行体验。 浏览页面,了解Borkum Airport附近所有可用的活动。 你也可以使用搜索功能来寻找你所在地附近的特定飞行课程、跳伞或其他飞行体验。

您会帮助我们保持Metar-Taf.com正常运行吗?
您的贡献有助于网站的进一步开发并支付费用。

没有更多广告

您是捐款5美元还是更多?然后,我们将永远不会再向您展示广告,这是我们永恒的感谢!
捐赠前先登录

跑道

Id 标题 侧风 逆风 侧风 %
5/23 049°-229° 1 kt 9 kt 16 %
12/30 122°-302° 9 kt 1 kt 99 %
13/31 132°-312° 9 kt 100 %

逆风成分最大的方向会被突出显示,并用于横风计算。 这并不一定意味着这个方向在使用。

乌云

0 ft

温度 & 天气

温度 59 °F
露点 57 °F
相对湿度 94%
Kp-index 1  

公司介绍

新增公司

下载我们的应用程序

在您的手机和平板电脑上轻松访问所有航空天气。
有许多网站上没有的功能,如离线支持和个人机场列表。

Studio Eveline

Benalmádena
España

我们和第三方通过cookies跟踪您在我们网站上的上网行为。如果您继续,我们认为您同意我们的cookie政策。 了解更多